createdAt,value
2019-01-04T00:01:41.801Z,13.17
2019-01-04T00:04:10.444Z,15.50
2019-01-04T00:06:39.167Z,17.40
2019-01-04T00:09:08.075Z,19.50
2019-01-04T00:11:36.763Z,14.90
2019-01-04T00:14:05.546Z,17.10
2019-01-04T00:16:34.144Z,15.43
2019-01-04T00:19:03.030Z,17.67
2019-01-04T00:21:31.741Z,14.63
2019-01-04T00:24:00.492Z,15.20
2019-01-04T00:26:29.482Z,16.73
2019-01-04T00:28:58.173Z,14.63
2019-01-04T00:31:27.787Z,25.23
2019-01-04T00:33:56.552Z,18.13
2019-01-04T00:36:25.078Z,16.33
2019-01-04T00:38:53.750Z,17.00
2019-01-04T00:41:22.369Z,16.90
2019-01-04T00:43:51.013Z,17.43
2019-01-04T00:46:19.659Z,17.17
2019-01-04T00:48:48.226Z,18.93
2019-01-04T00:51:16.852Z,19.63
2019-01-04T00:53:45.511Z,15.97
2019-01-04T00:56:17.210Z,17.63
2019-01-04T00:58:52.249Z,15.73
2019-01-04T01:01:45.888Z,17.77
2019-01-04T01:04:26.672Z,19.77
2019-01-04T01:07:24.115Z,17.50
2019-01-04T01:10:13.477Z,17.77
2019-01-04T01:12:57.077Z,19.53
2019-01-04T01:15:46.928Z,17.67
2019-01-04T01:18:33.725Z,21.63
2019-01-04T01:21:05.825Z,20.50
2019-01-04T01:23:55.793Z,19.00
2019-01-04T01:26:46.241Z,20.50
2019-01-04T01:29:43.211Z,23.73
2019-01-04T01:32:46.866Z,22.13
2019-01-04T01:35:27.681Z,26.37
2019-01-04T01:37:59.557Z,23.13
2019-01-04T01:40:52.124Z,20.97
2019-01-04T01:43:53.949Z,23.77
2019-01-04T01:46:25.561Z,21.67
2019-01-04T01:49:13.579Z,22.83
2019-01-04T01:51:45.117Z,20.83
2019-01-04T01:54:14.473Z,21.83
2019-01-04T01:56:42.937Z,25.83
2019-01-04T01:59:11.404Z,23.57
2019-01-04T02:01:41.037Z,23.00
2019-01-04T02:04:09.540Z,28.90
2019-01-04T02:06:38.017Z,28.10
2019-01-04T02:09:07.933Z,26.03
2019-01-04T02:11:36.462Z,26.07
2019-01-04T02:14:04.982Z,23.47
2019-01-04T02:16:33.526Z,24.73
2019-01-04T02:19:01.984Z,22.97
2019-01-04T02:21:33.021Z,27.83
2019-01-04T02:24:01.483Z,25.63
2019-01-04T02:26:29.957Z,26.57
2019-01-04T02:28:58.434Z,26.47
2019-01-04T02:31:28.000Z,25.17
2019-01-04T02:33:56.449Z,27.87
2019-01-04T02:36:25.828Z,28.07
2019-01-04T02:38:55.325Z,28.63
2019-01-04T02:41:23.833Z,29.07
2019-01-04T02:43:52.372Z,28.87
2019-01-04T02:46:20.891Z,28.37
2019-01-04T02:48:49.410Z,36.43
2019-01-04T02:51:17.877Z,29.53
2019-01-04T02:53:46.324Z,33.03
2019-01-04T02:56:14.788Z,30.90
2019-01-04T02:58:45.787Z,30.07
2019-01-04T03:01:14.329Z,31.83
2019-01-04T03:03:42.779Z,31.37
2019-01-04T03:06:11.242Z,32.13
2019-01-04T03:08:39.773Z,30.60
2019-01-04T03:11:08.312Z,31.37
2019-01-04T03:13:36.757Z,37.17
2019-01-04T03:16:05.293Z,36.43
2019-01-04T03:18:33.734Z,34.73
2019-01-04T03:21:02.193Z,35.03
2019-01-04T03:23:30.710Z,38.67
2019-01-04T03:25:59.318Z,37.50
2019-01-04T03:28:27.795Z,44.43
2019-01-04T03:30:56.245Z,41.47
2019-01-04T03:33:24.709Z,46.77
2019-01-04T03:35:53.143Z,54.73
2019-01-04T03:38:21.692Z,52.73
2019-01-04T03:40:50.133Z,50.40
2019-01-04T03:43:18.604Z,54.83
2019-01-04T03:45:48.690Z,52.77
2019-01-04T03:48:17.152Z,51.37
2019-01-04T03:50:45.616Z,52.83
2019-01-04T03:53:14.086Z,60.13
2019-01-04T03:55:42.524Z,58.33
2019-01-04T03:58:12.981Z,56.77
2019-01-04T04:00:41.244Z,63.03
2019-01-04T04:03:09.703Z,64.23
2019-01-04T04:05:38.153Z,61.13
2019-01-04T04:08:06.597Z,62.07
2019-01-04T04:10:35.086Z,62.60
2019-01-04T04:13:03.516Z,59.63
2019-01-04T04:15:32.148Z,61.07
2019-01-04T04:18:00.600Z,61.20
2019-01-04T04:20:29.075Z,60.17
2019-01-04T04:22:57.499Z,60.73
2019-01-04T04:25:25.971Z,58.60
2019-01-04T04:27:56.060Z,57.33
2019-01-04T04:30:24.527Z,60.27
2019-01-04T04:32:53.108Z,59.00
2019-01-04T04:35:21.570Z,61.83
2019-01-04T04:37:50.012Z,62.97
2019-01-04T04:40:18.475Z,58.30
2019-01-04T04:42:46.924Z,57.37
2019-01-04T04:45:15.380Z,54.53
2019-01-04T04:47:43.824Z,60.10
2019-01-04T04:50:12.275Z,60.97
2019-01-04T04:52:40.736Z,68.53
2019-01-04T04:55:09.244Z,59.33
2019-01-04T04:57:37.712Z,63.27
2019-01-04T05:00:09.187Z,61.40
2019-01-04T05:02:37.650Z,56.53
2019-01-04T05:05:06.171Z,66.60
2019-01-04T05:07:36.277Z,64.30
2019-01-04T05:10:05.586Z,61.97
2019-01-04T05:12:34.336Z,70.90
2019-01-04T05:15:02.785Z,69.10
2019-01-04T05:17:31.248Z,74.10
2019-01-04T05:19:59.685Z,77.77
2019-01-04T05:22:28.153Z,61.00
2019-01-04T05:24:56.601Z,65.63
2019-01-04T05:27:25.071Z,62.40
2019-01-04T05:29:53.544Z,70.17
2019-01-04T05:32:41.337Z,66.77
2019-01-04T05:35:09.778Z,70.30
2019-01-04T05:37:38.231Z,68.87
2019-01-04T05:40:08.016Z,78.30
2019-01-04T05:42:36.468Z,78.63
2019-01-04T05:45:06.248Z,73.27
2019-01-04T05:47:34.716Z,71.37
2019-01-04T05:50:03.229Z,70.30
2019-01-04T05:52:31.755Z,73.77
2019-01-04T05:55:03.244Z,81.83
2019-01-04T05:57:31.688Z,79.13
2019-01-04T06:00:01.811Z,84.10
2019-01-04T06:02:30.248Z,88.57
2019-01-04T06:04:58.793Z,87.63
2019-01-04T06:07:27.240Z,85.70
2019-01-04T06:09:55.744Z,88.70
2019-01-04T06:12:24.191Z,95.73
2019-01-04T06:14:52.651Z,101.77
2019-01-04T06:17:21.104Z,108.37
2019-01-04T06:20:12.410Z,105.33
2019-01-04T06:22:44.426Z,105.67
2019-01-04T06:25:18.846Z,112.13
2019-01-04T06:27:47.468Z,107.10
2019-01-04T06:30:15.938Z,111.07
2019-01-04T06:32:44.386Z,113.77
2019-01-04T06:35:12.825Z,113.17
2019-01-04T06:37:41.297Z,106.10
2019-01-04T06:40:10.447Z,112.33
2019-01-04T06:42:38.918Z,119.07
2019-01-04T06:45:08.105Z,143.97
2019-01-04T06:47:37.102Z,131.17
2019-01-04T06:50:08.601Z,123.57
2019-01-04T06:52:37.063Z,112.67
2019-01-04T06:55:20.696Z,102.27
2019-01-04T06:57:49.164Z,124.07
2019-01-04T07:00:17.619Z,145.00
2019-01-04T07:02:46.085Z,112.33
2019-01-04T07:05:14.532Z,143.43
2019-01-04T07:07:45.730Z,140.27
2019-01-04T07:10:14.185Z,120.13
2019-01-04T07:12:42.694Z,131.03
2019-01-04T07:15:30.471Z,135.63
2019-01-04T07:17:58.943Z,127.63
2019-01-04T07:20:30.476Z,127.07
2019-01-04T07:22:58.921Z,128.43
2019-01-04T07:25:27.355Z,115.40
2019-01-04T07:27:58.336Z,109.87
2019-01-04T07:30:26.795Z,101.90
2019-01-04T07:32:55.249Z,112.70
2019-01-04T07:35:23.792Z,116.37
2019-01-04T07:37:52.299Z,104.07
2019-01-04T07:40:20.844Z,100.63
2019-01-04T07:42:49.284Z,112.03
2019-01-04T07:45:18.016Z,107.03
2019-01-04T07:47:46.455Z,111.63
2019-01-04T07:50:14.919Z,101.20
2019-01-04T07:52:43.436Z,111.07
2019-01-04T07:55:11.976Z,107.83
2019-01-04T07:57:40.479Z,98.97
2019-01-04T08:00:11.560Z,99.47
2019-01-04T08:02:41.845Z,97.27
2019-01-04T08:05:18.003Z,98.43
2019-01-04T08:07:47.990Z,98.03
2019-01-04T08:10:16.462Z,115.20
2019-01-04T08:12:44.989Z,107.90
2019-01-04T08:15:13.500Z,95.83
2019-01-04T08:17:41.968Z,108.53
2019-01-04T08:20:11.452Z,108.97
2019-01-04T08:22:39.990Z,102.70
2019-01-04T08:25:08.984Z,117.23
2019-01-04T08:27:37.460Z,111.30
2019-01-04T08:30:09.122Z,108.67
2019-01-04T08:32:37.603Z,97.43
2019-01-04T08:35:06.193Z,103.67
2019-01-04T08:37:35.063Z,103.23
2019-01-04T08:40:04.141Z,111.37
2019-01-04T08:42:32.567Z,107.87
2019-01-04T08:45:01.037Z,93.27
2019-01-04T08:47:29.485Z,104.13
2019-01-04T08:49:58.016Z,104.60
2019-01-04T08:52:26.457Z,93.90
2019-01-04T08:54:54.990Z,93.30
2019-01-04T08:57:23.434Z,86.47
2019-01-04T08:59:52.033Z,82.77
2019-01-04T09:02:20.467Z,82.90
2019-01-04T09:04:48.942Z,77.30
2019-01-04T09:07:17.762Z,80.93
2019-01-04T09:09:46.450Z,79.70
2019-01-04T09:12:15.147Z,84.20
2019-01-04T09:14:43.754Z,80.57
2019-01-04T09:17:13.704Z,90.97
2019-01-04T09:19:42.205Z,88.47
2019-01-04T09:22:10.643Z,86.00
2019-01-04T09:24:39.137Z,94.37
2019-01-04T09:27:07.717Z,91.60
2019-01-04T09:29:36.189Z,96.43
2019-01-04T09:32:04.705Z,112.73
2019-01-04T09:34:33.182Z,114.07
2019-01-04T09:37:01.701Z,124.83
2019-01-04T09:39:32.955Z,101.63
2019-01-04T09:42:02.431Z,104.10
2019-01-04T09:44:30.902Z,103.87
2019-01-04T09:46:59.340Z,100.63
2019-01-04T09:49:27.812Z,84.87
2019-01-04T09:51:56.299Z,88.97
2019-01-04T09:54:24.781Z,99.20
2019-01-04T09:56:55.938Z,86.97
2019-01-04T09:59:24.510Z,82.47
2019-01-04T10:01:52.948Z,78.70
2019-01-04T10:04:21.667Z,68.43
2019-01-04T10:06:50.134Z,77.80
2019-01-04T10:09:18.566Z,66.77
2019-01-04T10:11:47.096Z,65.80
2019-01-04T10:14:15.622Z,68.67
2019-01-04T10:16:44.117Z,67.33
2019-01-04T10:19:12.596Z,64.63
2019-01-04T10:21:41.056Z,60.60
2019-01-04T10:24:09.550Z,67.60
2019-01-04T10:26:38.013Z,61.80
2019-01-04T10:29:06.451Z,61.03
2019-01-04T10:31:36.531Z,80.13
2019-01-04T10:34:04.999Z,66.77
2019-01-04T10:36:33.444Z,67.97
2019-01-04T10:39:01.904Z,66.47
2019-01-04T10:41:30.364Z,75.40
2019-01-04T10:43:58.826Z,58.00
2019-01-04T10:46:27.271Z,70.53
2019-01-04T10:48:55.728Z,67.63
2019-01-04T10:51:24.187Z,68.30
2019-01-04T10:53:52.665Z,53.40
2019-01-04T10:56:21.099Z,60.37
2019-01-04T10:58:49.555Z,55.10
2019-01-04T11:01:18.001Z,51.93
2019-01-04T11:03:46.461Z,53.50
2019-01-04T11:06:15.292Z,45.30
2019-01-04T11:08:43.749Z,42.13
2019-01-04T11:11:12.189Z,40.13
2019-01-04T11:13:40.620Z,40.93
2019-01-04T11:16:09.075Z,40.67
2019-01-04T11:18:37.528Z,41.60
2019-01-04T11:21:08.164Z,43.23
2019-01-04T11:23:58.692Z,42.60
2019-01-04T11:26:33.057Z,46.63
2019-01-04T11:29:25.944Z,48.17
2019-01-04T11:32:06.270Z,46.00
2019-01-04T11:35:06.151Z,46.10
2019-01-04T11:37:54.563Z,41.50
2019-01-04T11:40:43.386Z,43.57
2019-01-04T11:43:45.316Z,43.33
2019-01-04T11:46:31.827Z,48.17
2019-01-04T11:49:28.971Z,41.70
2019-01-04T11:52:03.216Z,42.57
2019-01-04T11:54:31.659Z,42.33
2019-01-04T11:57:00.250Z,36.60
2019-01-04T11:59:28.728Z,43.43
2019-01-04T12:01:57.328Z,39.67
2019-01-04T12:04:25.793Z,38.07
2019-01-04T12:06:54.276Z,37.53
2019-01-04T12:09:22.829Z,37.67
2019-01-04T12:11:53.932Z,39.57
2019-01-04T12:14:22.360Z,39.07
2019-01-04T12:16:50.955Z,37.40
2019-01-04T12:19:19.517Z,37.30
2019-01-04T12:21:48.037Z,40.20
2019-01-04T12:24:16.492Z,37.87
2019-01-04T12:26:45.000Z,37.23
2019-01-04T12:29:13.539Z,40.47
2019-01-04T12:31:41.985Z,34.70
2019-01-04T12:34:16.507Z,35.17
2019-01-04T12:36:43.336Z,34.70
2019-01-04T12:39:11.795Z,39.53
2019-01-04T12:41:40.245Z,30.73
2019-01-04T12:44:08.693Z,36.67
2019-01-04T12:46:37.172Z,34.30
2019-01-04T12:49:05.636Z,35.53
2019-01-04T12:51:34.265Z,33.67
2019-01-04T12:54:02.725Z,35.77
2019-01-04T12:56:31.232Z,32.97
2019-01-04T12:58:59.829Z,43.33
2019-01-04T13:01:28.356Z,36.77
2019-01-04T13:03:56.800Z,37.70
2019-01-04T13:06:25.266Z,36.10
2019-01-04T13:08:53.713Z,38.90
2019-01-04T13:11:22.294Z,35.60
2019-01-04T13:13:52.044Z,45.37
2019-01-04T13:16:20.497Z,41.80
2019-01-04T13:18:49.012Z,39.93
2019-01-04T13:21:17.514Z,44.07
2019-01-04T13:23:45.982Z,43.40
2019-01-04T13:26:14.467Z,39.00
2019-01-04T13:28:42.958Z,45.00
2019-01-04T13:31:11.424Z,42.13
2019-01-04T13:33:39.931Z,42.87
2019-01-04T13:36:09.503Z,46.10
2019-01-04T13:38:38.000Z,43.87
2019-01-04T13:41:06.471Z,43.43
2019-01-04T13:43:34.969Z,38.50
2019-01-04T13:46:03.443Z,40.20
2019-01-04T13:48:31.882Z,44.00
2019-01-04T13:51:00.444Z,42.13
2019-01-04T13:53:28.874Z,41.00
2019-01-04T13:55:57.346Z,41.70
2019-01-04T13:58:25.784Z,45.50
2019-01-04T14:00:56.972Z,44.97
2019-01-04T14:03:25.732Z,47.17
2019-01-04T14:05:55.077Z,49.20
2019-01-04T14:08:26.220Z,44.67
2019-01-04T14:10:55.605Z,48.07
2019-01-04T14:13:24.073Z,52.97
2019-01-04T14:15:52.525Z,56.20
2019-01-04T14:18:21.095Z,59.33
2019-01-04T14:20:49.612Z,57.60
2019-01-04T14:23:18.098Z,57.90
2019-01-04T14:25:46.657Z,63.67
2019-01-04T14:28:15.137Z,58.63
2019-01-04T14:30:43.588Z,59.70
2019-01-04T14:33:12.056Z,63.60
2019-01-04T14:35:40.582Z,67.47
2019-01-04T14:38:09.053Z,63.97
2019-01-04T14:40:38.512Z,61.70
2019-01-04T14:43:07.048Z,66.70
2019-01-04T14:45:35.497Z,56.73
2019-01-04T14:48:03.940Z,65.37
2019-01-04T14:50:32.396Z,59.30
2019-01-04T14:53:00.857Z,65.83
2019-01-04T14:55:29.318Z,66.10
2019-01-04T14:57:57.756Z,65.53
2019-01-04T15:00:27.862Z,60.63
2019-01-04T15:02:56.298Z,63.40
2019-01-04T15:05:24.767Z,67.17
2019-01-04T15:07:53.219Z,71.50
2019-01-04T15:10:21.681Z,68.83
2019-01-04T15:12:50.129Z,70.90
2019-01-04T15:15:19.025Z,62.40
2019-01-04T15:17:48.379Z,66.77
2019-01-04T15:20:16.942Z,52.50
2019-01-04T15:22:45.391Z,60.37
2019-01-04T15:25:13.920Z,64.87
2019-01-04T15:27:42.363Z,56.77
2019-01-04T15:30:11.404Z,59.37
2019-01-04T15:32:39.932Z,63.83
2019-01-04T15:35:08.560Z,68.03
2019-01-04T15:37:37.839Z,56.93
2019-01-04T15:40:10.649Z,65.43
2019-01-04T15:42:42.016Z,66.13
2019-01-04T15:45:11.000Z,63.57
2019-01-04T15:47:39.484Z,57.87
2019-01-04T15:50:10.754Z,60.83
2019-01-04T15:52:39.457Z,54.33
2019-01-04T15:55:09.679Z,60.50
2019-01-04T15:57:42.988Z,54.60
2019-01-04T16:00:12.464Z,52.20
2019-01-04T16:02:40.992Z,52.30
2019-01-04T16:05:10.085Z,50.87
2019-01-04T16:07:38.640Z,36.10
2019-01-04T16:10:08.714Z,50.60
2019-01-04T16:12:37.225Z,44.13
2019-01-04T16:15:10.108Z,52.57
2019-01-04T16:17:38.654Z,51.63
2019-01-04T16:20:09.892Z,51.03
2019-01-04T16:22:38.476Z,49.80
2019-01-04T16:25:08.071Z,48.90
2019-01-04T16:27:36.654Z,48.93
2019-01-04T16:30:08.472Z,54.50
2019-01-04T16:32:36.945Z,50.00
2019-01-04T16:35:06.033Z,51.73
2019-01-04T16:37:34.472Z,52.43
2019-01-04T16:40:03.003Z,51.73
2019-01-04T16:42:31.548Z,58.73
2019-01-04T16:45:00.016Z,55.00
2019-01-04T16:47:28.543Z,59.17
2019-01-04T16:49:57.001Z,57.03
2019-01-04T16:52:26.388Z,62.97
2019-01-04T16:54:54.853Z,65.33
2019-01-04T16:57:23.297Z,68.00
2019-01-04T16:59:51.769Z,72.93
2019-01-04T17:02:20.284Z,77.57
2019-01-04T17:04:48.748Z,73.67
2019-01-04T17:07:17.184Z,74.57
2019-01-04T17:09:45.657Z,66.80
2019-01-04T17:12:14.174Z,72.97
2019-01-04T17:14:42.619Z,68.07
2019-01-04T17:17:11.090Z,82.57
2019-01-04T17:19:40.857Z,85.03
2019-01-04T17:22:10.636Z,74.73
2019-01-04T17:24:39.097Z,85.80
2019-01-04T17:27:07.638Z,86.77
2019-01-04T17:29:36.085Z,87.93
2019-01-04T17:32:04.548Z,94.57
2019-01-04T17:34:32.997Z,88.53
2019-01-04T17:37:01.470Z,83.00
2019-01-04T17:39:30.093Z,85.27
2019-01-04T17:41:58.558Z,87.57
2019-01-04T17:44:27.061Z,93.77
2019-01-04T17:46:55.596Z,88.37
2019-01-04T17:49:24.037Z,79.83
2019-01-04T17:51:52.505Z,79.97
2019-01-04T17:54:20.951Z,81.07
2019-01-04T17:56:49.425Z,73.17
2019-01-04T17:59:17.885Z,77.97
2019-01-04T18:01:46.349Z,81.37
2019-01-04T18:04:14.796Z,73.90
2019-01-04T18:06:43.261Z,73.10
2019-01-04T18:09:11.728Z,66.57
2019-01-04T18:11:40.264Z,69.03
2019-01-04T18:14:09.113Z,73.13
2019-01-04T18:16:37.889Z,72.43
2019-01-04T18:19:06.901Z,65.83
2019-01-04T18:21:35.520Z,73.97
2019-01-04T18:24:04.213Z,80.77
2019-01-04T18:26:32.682Z,88.00
2019-01-04T18:29:01.226Z,95.37
2019-01-04T18:31:29.739Z,101.07
2019-01-04T18:33:58.279Z,92.70
2019-01-04T18:36:27.596Z,87.90
2019-01-04T18:38:56.053Z,94.73
2019-01-04T18:41:24.513Z,84.00
2019-01-04T18:43:52.977Z,92.77
2019-01-04T18:46:24.332Z,88.97
2019-01-04T18:48:53.168Z,100.97
2019-01-04T18:51:21.622Z,103.97
2019-01-04T18:53:50.156Z,88.97
2019-01-04T18:56:18.605Z,94.73
2019-01-04T18:58:47.060Z,99.30
2019-01-04T19:01:15.503Z,93.53
2019-01-04T19:03:44.897Z,88.43
2019-01-04T19:06:13.350Z,89.57
2019-01-04T19:08:41.816Z,95.17
2019-01-04T19:11:11.895Z,96.23
2019-01-04T19:13:40.332Z,89.80
2019-01-04T19:16:08.897Z,89.17
2019-01-04T19:18:38.824Z,92.97
2019-01-04T19:21:07.306Z,92.57
2019-01-04T19:23:39.504Z,94.10
2019-01-04T19:26:06.009Z,93.40
2019-01-04T19:28:34.458Z,97.53
2019-01-04T19:31:02.918Z,96.17
2019-01-04T19:33:32.195Z,96.17
2019-01-04T19:36:00.822Z,108.80
2019-01-04T19:38:29.264Z,101.67
2019-01-04T19:40:57.733Z,92.33
2019-01-04T19:43:26.186Z,92.30
2019-01-04T19:45:54.639Z,89.13
2019-01-04T19:48:23.103Z,94.33
2019-01-04T19:50:51.676Z,98.47
2019-01-04T19:53:20.119Z,88.43
2019-01-04T19:55:48.584Z,82.80
2019-01-04T19:58:17.034Z,79.67
2019-01-04T20:00:45.598Z,84.83
2019-01-04T20:03:14.065Z,81.80
2019-01-04T20:05:56.164Z,83.80
2019-01-04T20:08:48.617Z,83.20
2019-01-04T20:11:50.490Z,74.83
2019-01-04T20:14:49.434Z,75.80
2019-01-04T20:17:34.976Z,82.07
2019-01-04T20:20:07.809Z,82.43
2019-01-04T20:22:37.951Z,78.23
2019-01-04T20:25:24.321Z,81.57
2019-01-04T20:27:54.434Z,81.67
2019-01-04T20:30:41.278Z,79.93
2019-01-04T20:33:14.053Z,63.80
2019-01-04T20:36:00.128Z,71.70
2019-01-04T20:38:42.108Z,84.43
2019-01-04T20:41:24.447Z,85.17
2019-01-04T20:44:03.777Z,79.10
2019-01-04T20:46:36.453Z,84.50
2019-01-04T20:49:16.113Z,86.77
2019-01-04T20:51:57.810Z,90.67
2019-01-04T20:54:30.925Z,84.90
2019-01-04T20:57:09.840Z,76.53
2019-01-04T20:59:52.163Z,93.03
2019-01-04T21:02:24.724Z,88.10
2019-01-04T21:04:54.829Z,85.20
2019-01-04T21:07:24.915Z,97.13
2019-01-04T21:09:57.545Z,101.43
2019-01-04T21:12:39.844Z,101.73
2019-01-04T21:15:25.473Z,90.37
2019-01-04T21:18:11.520Z,95.97
2019-01-04T21:20:50.212Z,91.30
2019-01-04T21:23:20.814Z,100.33
2019-01-04T21:26:07.711Z,99.20
2019-01-04T21:28:37.807Z,91.87
2019-01-04T21:31:23.888Z,98.23
2019-01-04T21:34:09.378Z,94.77
2019-01-04T21:36:55.750Z,99.57
2019-01-04T21:39:28.595Z,99.17
2019-01-04T21:42:01.342Z,91.87
2019-01-04T21:44:40.214Z,97.90
2019-01-04T21:47:22.577Z,102.27
2019-01-04T21:50:04.846Z,106.00
2019-01-04T21:52:43.915Z,101.20
2019-01-04T21:55:31.126Z,92.90
2019-01-04T21:58:19.560Z,92.43
2019-01-04T22:01:04.824Z,101.13
2019-01-04T22:03:51.336Z,98.80
2019-01-04T22:06:38.255Z,97.10
2019-01-04T22:09:20.656Z,95.13
2019-01-04T22:11:56.264Z,97.63
2019-01-04T22:14:38.499Z,90.07
2019-01-04T22:17:08.649Z,93.43
2019-01-04T22:19:55.003Z,100.77
2019-01-04T22:22:27.841Z,100.37
2019-01-04T22:25:14.649Z,91.60
2019-01-04T22:27:47.462Z,104.60
2019-01-04T22:30:26.355Z,100.23
2019-01-04T22:33:14.864Z,105.37
2019-01-04T22:35:47.441Z,105.07
2019-01-04T22:38:20.529Z,113.67
2019-01-04T22:40:50.676Z,104.10
2019-01-04T22:43:20.797Z,111.00
2019-01-04T22:45:53.816Z,105.67
2019-01-04T22:48:40.440Z,104.27
2019-01-04T22:51:26.529Z,113.87
2019-01-04T22:54:14.974Z,105.73
2019-01-04T22:56:45.132Z,107.10
2019-01-04T22:59:15.243Z,105.90
2019-01-04T23:01:45.328Z,102.40
2019-01-04T23:04:15.461Z,103.40
2019-01-04T23:06:54.425Z,107.83
2019-01-04T23:09:27.289Z,105.90
2019-01-04T23:12:00.172Z,96.07
2019-01-04T23:14:32.717Z,95.47
2019-01-04T23:17:05.971Z,101.83
2019-01-04T23:19:36.089Z,106.27
2019-01-04T23:22:06.712Z,102.70
2019-01-04T23:24:45.457Z,97.50
2019-01-04T23:27:21.084Z,112.77
2019-01-04T23:29:51.209Z,95.17
2019-01-04T23:32:21.364Z,108.10
2019-01-04T23:35:07.424Z,116.57
2019-01-04T23:37:43.484Z,121.13
2019-01-04T23:40:16.540Z,107.57
2019-01-04T23:42:55.748Z,118.63
2019-01-04T23:45:26.221Z,117.07
2019-01-04T23:48:05.884Z,118.80
2019-01-04T23:50:36.738Z,129.50
2019-01-04T23:53:23.132Z,118.13
2019-01-04T23:55:53.241Z,111.53
2019-01-04T23:58:27.648Z,126.30
